sensor_id;sensor_type;location;lat;lon;timestamp;P1;durP1;ratioP1;P2;durP2;ratioP2
52106;SDS011;38105;52.968;5.974;2022-09-25T00:02:13;6.82;;;1.80;;
52106;SDS011;38105;52.968;5.974;2022-09-25T00:04:44;7.70;;;1.98;;
52106;SDS011;38105;52.968;5.974;2022-09-25T00:07:12;5.20;;;1.70;;
52106;SDS011;38105;52.968;5.974;2022-09-25T00:09:44;7.53;;;1.67;;
52106;SDS011;38105;52.968;5.974;2022-09-25T00:12:09;2.97;;;1.33;;
52106;SDS011;38105;52.968;5.974;2022-09-25T00:14:41;8.13;;;1.38;;
52106;SDS011;38105;52.968;5.974;2022-09-25T00:17:06;5.80;;;1.67;;
52106;SDS011;38105;52.968;5.974;2022-09-25T00:19:35;5.22;;;1.50;;
52106;SDS011;38105;52.968;5.974;2022-09-25T00:22:16;3.55;;;1.20;;
52106;SDS011;38105;52.968;5.974;2022-09-25T00:24:42;3.22;;;1.02;;
52106;SDS011;38105;52.968;5.974;2022-09-25T00:27:11;3.17;;;1.00;;
52106;SDS011;38105;52.968;5.974;2022-09-25T00:29:37;9.70;;;1.77;;
52106;SDS011;38105;52.968;5.974;2022-09-25T00:32:06;5.88;;;1.42;;
52106;SDS011;38105;52.968;5.974;2022-09-25T00:34:35;7.35;;;1.48;;
52106;SDS011;38105;52.968;5.974;2022-09-25T00:37:01;5.53;;;1.10;;
52106;SDS011;38105;52.968;5.974;2022-09-25T00:39:27;3.55;;;1.30;;
52106;SDS011;38105;52.968;5.974;2022-09-25T00:41:53;7.78;;;1.83;;
52106;SDS011;38105;52.968;5.974;2022-09-25T00:50:36;7.55;;;1.40;;
52106;SDS011;38105;52.968;5.974;2022-09-25T00:53:14;6.15;;;1.50;;
52106;SDS011;38105;52.968;5.974;2022-09-25T00:55:46;6.72;;;1.55;;
52106;SDS011;38105;52.968;5.974;2022-09-25T00:58:19;5.68;;;1.42;;
52106;SDS011;38105;52.968;5.974;2022-09-25T01:00:48;5.93;;;1.63;;
52106;SDS011;38105;52.968;5.974;2022-09-25T01:03:16;10.80;;;1.77;;
52106;SDS011;38105;52.968;5.974;2022-09-25T01:05:43;5.88;;;1.67;;
52106;SDS011;38105;52.968;5.974;2022-09-25T01:08:17;8.88;;;2.08;;
52106;SDS011;38105;52.968;5.974;2022-09-25T01:10:46;5.07;;;1.42;;
52106;SDS011;38105;52.968;5.974;2022-09-25T01:13:19;5.93;;;1.42;;
52106;SDS011;38105;52.968;5.974;2022-09-25T01:21:14;4.75;;;1.75;;
52106;SDS011;38105;52.968;5.974;2022-09-25T01:29:20;9.05;;;2.13;;
52106;SDS011;38105;52.968;5.974;2022-09-25T01:37:28;8.65;;;2.20;;
52106;SDS011;38105;52.968;5.974;2022-09-25T01:42:54;11.70;;;2.83;;
52106;SDS011;38105;52.968;5.974;2022-09-25T01:45:38;11.95;;;2.20;;
52106;SDS011;38105;52.968;5.974;2022-09-25T01:48:08;10.70;;;2.55;;
52106;SDS011;38105;52.968;5.974;2022-09-25T01:53:29;6.97;;;1.42;;
52106;SDS011;38105;52.968;5.974;2022-09-25T01:56:03;10.38;;;2.05;;
52106;SDS011;38105;52.968;5.974;2022-09-25T01:58:56;8.40;;;1.75;;
52106;SDS011;38105;52.968;5.974;2022-09-25T02:01:31;6.88;;;1.73;;
52106;SDS011;38105;52.968;5.974;2022-09-25T02:04:06;8.60;;;2.00;;
52106;SDS011;38105;52.968;5.974;2022-09-25T02:06:57;8.50;;;2.05;;
52106;SDS011;38105;52.968;5.974;2022-09-25T02:09:31;8.00;;;2.25;;
52106;SDS011;38105;52.968;5.974;2022-09-25T02:12:37;11.05;;;2.47;;
52106;SDS011;38105;52.968;5.974;2022-09-25T02:15:07;8.13;;;1.55;;
52106;SDS011;38105;52.968;5.974;2022-09-25T02:17:45;10.57;;;1.80;;
52106;SDS011;38105;52.968;5.974;2022-09-25T02:20:36;7.40;;;1.95;;
52106;SDS011;38105;52.968;5.974;2022-09-25T02:23:22;6.88;;;1.80;;
52106;SDS011;38105;52.968;5.974;2022-09-25T02:25:57;10.52;;;2.42;;
52106;SDS011;38105;52.968;5.974;2022-09-25T02:28:28;11.70;;;2.20;;
52106;SDS011;38105;52.968;5.974;2022-09-25T02:30:57;11.77;;;2.40;;
52106;SDS011;38105;52.968;5.974;2022-09-25T02:33:29;11.77;;;1.80;;
52106;SDS011;38105;52.968;5.974;2022-09-25T02:36:01;10.02;;;1.88;;
52106;SDS011;38105;52.968;5.974;2022-09-25T02:38:35;9.32;;;1.42;;
52106;SDS011;38105;52.968;5.974;2022-09-25T02:41:18;11.38;;;1.98;;
52106;SDS011;38105;52.968;5.974;2022-09-25T02:44:07;17.08;;;1.85;;
52106;SDS011;38105;52.968;5.974;2022-09-25T02:46:41;8.68;;;1.73;;
52106;SDS011;38105;52.968;5.974;2022-09-25T02:54:53;6.90;;;1.15;;
52106;SDS011;38105;52.968;5.974;2022-09-25T02:57:47;6.57;;;1.20;;
52106;SDS011;38105;52.968;5.974;2022-09-25T03:00:26;6.25;;;1.33;;
52106;SDS011;38105;52.968;5.974;2022-09-25T03:02:55;7.78;;;1.25;;
52106;SDS011;38105;52.968;5.974;2022-09-25T03:05:28;5.53;;;1.20;;
52106;SDS011;38105;52.968;5.974;2022-09-25T03:07:54;6.32;;;1.35;;
52106;SDS011;38105;52.968;5.974;2022-09-25T03:10:42;4.53;;;0.93;;
52106;SDS011;38105;52.968;5.974;2022-09-25T03:15:43;8.57;;;1.00;;
52106;SDS011;38105;52.968;5.974;2022-09-25T03:18:14;6.53;;;1.10;;
52106;SDS011;38105;52.968;5.974;2022-09-25T03:20:44;3.95;;;1.20;;
52106;SDS011;38105;52.968;5.974;2022-09-25T03:23:14;7.13;;;1.38;;
52106;SDS011;38105;52.968;5.974;2022-09-25T03:25:42;5.82;;;1.80;;
52106;SDS011;38105;52.968;5.974;2022-09-25T03:28:08;6.18;;;1.20;;
52106;SDS011;38105;52.968;5.974;2022-09-25T03:30:35;5.55;;;0.95;;
52106;SDS011;38105;52.968;5.974;2022-09-25T03:33:08;5.13;;;1.08;;
52106;SDS011;38105;52.968;5.974;2022-09-25T03:38:09;11.40;;;1.98;;
52106;SDS011;38105;52.968;5.974;2022-09-25T03:40:35;8.10;;;1.58;;
52106;SDS011;38105;52.968;5.974;2022-09-25T03:43:03;10.75;;;2.22;;
52106;SDS011;38105;52.968;5.974;2022-09-25T03:45:31;11.23;;;2.03;;
52106;SDS011;38105;52.968;5.974;2022-09-25T03:47:59;13.57;;;2.10;;
52106;SDS011;38105;52.968;5.974;2022-09-25T03:50:27;8.05;;;1.50;;
52106;SDS011;38105;52.968;5.974;2022-09-25T03:52:56;8.32;;;1.30;;
52106;SDS011;38105;52.968;5.974;2022-09-25T03:55:21;8.95;;;1.45;;
52106;SDS011;38105;52.968;5.974;2022-09-25T03:57:52;6.85;;;1.38;;
52106;SDS011;38105;52.968;5.974;2022-09-25T04:00:26;8.45;;;1.23;;
52106;SDS011;38105;52.968;5.974;2022-09-25T04:02:52;4.15;;;1.00;;
52106;SDS011;38105;52.968;5.974;2022-09-25T04:05:17;10.18;;;1.05;;
52106;SDS011;38105;52.968;5.974;2022-09-25T04:07:44;5.47;;;1.30;;
52106;SDS011;38105;52.968;5.974;2022-09-25T04:10:13;13.20;;;2.97;;
52106;SDS011;38105;52.968;5.974;2022-09-25T04:12:41;7.50;;;1.08;;
52106;SDS011;38105;52.968;5.974;2022-09-25T04:15:09;6.55;;;0.88;;
52106;SDS011;38105;52.968;5.974;2022-09-25T04:17:38;14.23;;;1.10;;
52106;SDS011;38105;52.968;5.974;2022-09-25T04:20:09;5.40;;;0.93;;
52106;SDS011;38105;52.968;5.974;2022-09-25T04:22:43;6.25;;;1.10;;
52106;SDS011;38105;52.968;5.974;2022-09-25T04:25:09;6.40;;;0.88;;
52106;SDS011;38105;52.968;5.974;2022-09-25T04:27:37;5.88;;;1.05;;
52106;SDS011;38105;52.968;5.974;2022-09-25T04:30:03;2.78;;;0.60;;
52106;SDS011;38105;52.968;5.974;2022-09-25T04:32:30;4.95;;;0.70;;
52106;SDS011;38105;52.968;5.974;2022-09-25T04:35:17;6.88;;;1.20;;
52106;SDS011;38105;52.968;5.974;2022-09-25T04:37:43;2.85;;;0.60;;
52106;SDS011;38105;52.968;5.974;2022-09-25T04:40:14;5.47;;;0.80;;
52106;SDS011;38105;52.968;5.974;2022-09-25T04:42:39;6.95;;;1.02;;
52106;SDS011;38105;52.968;5.974;2022-09-25T04:45:08;4.60;;;0.70;;
52106;SDS011;38105;52.968;5.974;2022-09-25T04:47:36;4.72;;;0.80;;
52106;SDS011;38105;52.968;5.974;2022-09-25T04:50:02;4.15;;;0.65;;
52106;SDS011;38105;52.968;5.974;2022-09-25T04:52:29;5.13;;;0.60;;
52106;SDS011;38105;52.968;5.974;2022-09-25T04:54:58;3.33;;;0.60;;
52106;SDS011;38105;52.968;5.974;2022-09-25T04:57:27;3.78;;;1.25;;
52106;SDS011;38105;52.968;5.974;2022-09-25T04:59:56;5.97;;;0.75;;
52106;SDS011;38105;52.968;5.974;2022-09-25T05:02:27;4.15;;;0.70;;
52106;SDS011;38105;52.968;5.974;2022-09-25T05:04:53;3.63;;;0.80;;
52106;SDS011;38105;52.968;5.974;2022-09-25T05:07:19;3.45;;;0.60;;
52106;SDS011;38105;52.968;5.974;2022-09-25T05:09:49;6.60;;;0.90;;
52106;SDS011;38105;52.968;5.974;2022-09-25T05:12:17;5.40;;;0.93;;
52106;SDS011;38105;52.968;5.974;2022-09-25T05:14:44;3.55;;;0.70;;
52106;SDS011;38105;52.968;5.974;2022-09-25T05:17:12;8.90;;;1.60;;
52106;SDS011;38105;52.968;5.974;2022-09-25T05:19:40;5.20;;;1.10;;
52106;SDS011;38105;52.968;5.974;2022-09-25T05:22:08;9.20;;;0.82;;
52106;SDS011;38105;52.968;5.974;2022-09-25T05:24:34;6.97;;;1.00;;
52106;SDS011;38105;52.968;5.974;2022-09-25T05:27:00;7.45;;;1.00;;
52106;SDS011;38105;52.968;5.974;2022-09-25T05:29:26;5.95;;;1.00;;
52106;SDS011;38105;52.968;5.974;2022-09-25T05:31:52;8.40;;;1.10;;
52106;SDS011;38105;52.968;5.974;2022-09-25T05:34:17;6.53;;;0.95;;
52106;SDS011;38105;52.968;5.974;2022-09-25T05:36:43;7.07;;;0.93;;
52106;SDS011;38105;52.968;5.974;2022-09-25T05:39:14;6.35;;;0.65;;
52106;SDS011;38105;52.968;5.974;2022-09-25T05:41:39;2.70;;;0.60;;
52106;SDS011;38105;52.968;5.974;2022-09-25T05:44:05;5.45;;;0.93;;
52106;SDS011;38105;52.968;5.974;2022-09-25T05:46:34;5.68;;;0.82;;
52106;SDS011;38105;52.968;5.974;2022-09-25T05:49:03;3.58;;;0.70;;
52106;SDS011;38105;52.968;5.974;2022-09-25T05:51:29;6.65;;;1.42;;
52106;SDS011;38105;52.968;5.974;2022-09-25T05:53:55;5.22;;;0.77;;
52106;SDS011;38105;52.968;5.974;2022-09-25T05:56:22;6.03;;;0.93;;
52106;SDS011;38105;52.968;5.974;2022-09-25T05:58:49;3.70;;;0.70;;
52106;SDS011;38105;52.968;5.974;2022-09-25T06:01:15;4.85;;;0.75;;
52106;SDS011;38105;52.968;5.974;2022-09-25T06:03:44;6.22;;;1.08;;
52106;SDS011;38105;52.968;5.974;2022-09-25T06:06:10;7.05;;;0.88;;
52106;SDS011;38105;52.968;5.974;2022-09-25T06:08:36;2.53;;;0.57;;
52106;SDS011;38105;52.968;5.974;2022-09-25T06:11:02;3.05;;;0.55;;
52106;SDS011;38105;52.968;5.974;2022-09-25T06:13:29;4.97;;;0.90;;
52106;SDS011;38105;52.968;5.974;2022-09-25T06:15:58;5.85;;;1.10;;
52106;SDS011;38105;52.968;5.974;2022-09-25T06:18:25;10.70;;;0.90;;
52106;SDS011;38105;52.968;5.974;2022-09-25T06:20:57;7.57;;;0.77;;
52106;SDS011;38105;52.968;5.974;2022-09-25T06:23:26;4.57;;;0.45;;
52106;SDS011;38105;52.968;5.974;2022-09-25T06:25:52;3.95;;;0.65;;
52106;SDS011;38105;52.968;5.974;2022-09-25T06:28:20;2.83;;;0.50;;
52106;SDS011;38105;52.968;5.974;2022-09-25T06:30:48;5.18;;;0.60;;
52106;SDS011;38105;52.968;5.974;2022-09-25T06:33:14;4.75;;;0.52;;
52106;SDS011;38105;52.968;5.974;2022-09-25T06:35:43;8.82;;;1.60;;
52106;SDS011;38105;52.968;5.974;2022-09-25T06:38:10;3.13;;;0.50;;
52106;SDS011;38105;52.968;5.974;2022-09-25T06:40:36;3.90;;;0.55;;
52106;SDS011;38105;52.968;5.974;2022-09-25T06:43:04;5.10;;;0.80;;
52106;SDS011;38105;52.968;5.974;2022-09-25T06:45:34;7.10;;;0.70;;
52106;SDS011;38105;52.968;5.974;2022-09-25T06:48:12;5.55;;;0.88;;
52106;SDS011;38105;52.968;5.974;2022-09-25T06:50:41;6.93;;;0.85;;
52106;SDS011;38105;52.968;5.974;2022-09-25T06:53:10;3.50;;;0.60;;
52106;SDS011;38105;52.968;5.974;2022-09-25T06:55:37;5.45;;;1.27;;
52106;SDS011;38105;52.968;5.974;2022-09-25T06:58:04;5.72;;;0.90;;
52106;SDS011;38105;52.968;5.974;2022-09-25T07:00:31;2.35;;;0.47;;
52106;SDS011;38105;52.968;5.974;2022-09-25T07:02:57;3.65;;;0.80;;
52106;SDS011;38105;52.968;5.974;2022-09-25T07:05:42;3.13;;;0.57;;
52106;SDS011;38105;52.968;5.974;2022-09-25T07:08:09;9.27;;;1.05;;
52106;SDS011;38105;52.968;5.974;2022-09-25T07:10:49;6.13;;;1.27;;
52106;SDS011;38105;52.968;5.974;2022-09-25T07:13:19;5.78;;;0.95;;
52106;SDS011;38105;52.968;5.974;2022-09-25T07:18:16;5.65;;;0.98;;
52106;SDS011;38105;52.968;5.974;2022-09-25T07:20:44;4.68;;;0.82;;
52106;SDS011;38105;52.968;5.974;2022-09-25T07:23:11;5.45;;;1.30;;
52106;SDS011;38105;52.968;5.974;2022-09-25T07:25:41;6.78;;;1.35;;
52106;SDS011;38105;52.968;5.974;2022-09-25T07:28:11;7.03;;;1.48;;
52106;SDS011;38105;52.968;5.974;2022-09-25T07:30:38;6.38;;;1.17;;
52106;SDS011;38105;52.968;5.974;2022-09-25T07:33:04;6.13;;;1.30;;
52106;SDS011;38105;52.968;5.974;2022-09-25T07:35:33;7.18;;;1.60;;
52106;SDS011;38105;52.968;5.974;2022-09-25T07:38:00;4.50;;;1.45;;
52106;SDS011;38105;52.968;5.974;2022-09-25T07:40:26;5.60;;;1.50;;
52106;SDS011;38105;52.968;5.974;2022-09-25T07:43:02;7.15;;;1.20;;
52106;SDS011;38105;52.968;5.974;2022-09-25T07:45:29;6.50;;;1.10;;
52106;SDS011;38105;52.968;5.974;2022-09-25T07:47:59;3.55;;;0.90;;
52106;SDS011;38105;52.968;5.974;2022-09-25T07:50:31;4.20;;;0.90;;
52106;SDS011;38105;52.968;5.974;2022-09-25T07:52:57;3.90;;;0.60;;
52106;SDS011;38105;52.968;5.974;2022-09-25T07:55:23;4.75;;;0.88;;
52106;SDS011;38105;52.968;5.974;2022-09-25T07:57:54;3.95;;;0.90;;
52106;SDS011;38105;52.968;5.974;2022-09-25T08:00:21;6.85;;;1.40;;
52106;SDS011;38105;52.968;5.974;2022-09-25T08:02:53;4.20;;;0.80;;
52106;SDS011;38105;52.968;5.974;2022-09-25T08:05:23;3.72;;;0.70;;
52106;SDS011;38105;52.968;5.974;2022-09-25T08:07:51;4.45;;;0.73;;
52106;SDS011;38105;52.968;5.974;2022-09-25T08:10:17;4.55;;;1.00;;
52106;SDS011;38105;52.968;5.974;2022-09-25T08:12:46;6.28;;;1.10;;
52106;SDS011;38105;52.968;5.974;2022-09-25T08:15:12;4.13;;;0.65;;
52106;SDS011;38105;52.968;5.974;2022-09-25T08:17:42;5.85;;;1.05;;
52106;SDS011;38105;52.968;5.974;2022-09-25T08:20:08;3.70;;;0.80;;
52106;SDS011;38105;52.968;5.974;2022-09-25T08:22:34;6.45;;;1.25;;
52106;SDS011;38105;52.968;5.974;2022-09-25T08:25:00;4.65;;;0.85;;
52106;SDS011;38105;52.968;5.974;2022-09-25T08:27:28;5.75;;;0.90;;
52106;SDS011;38105;52.968;5.974;2022-09-25T08:29:57;5.60;;;0.60;;
52106;SDS011;38105;52.968;5.974;2022-09-25T08:32:23;2.78;;;0.80;;
52106;SDS011;38105;52.968;5.974;2022-09-25T08:34:48;5.15;;;0.73;;
52106;SDS011;38105;52.968;5.974;2022-09-25T08:37:14;3.05;;;0.77;;
52106;SDS011;38105;52.968;5.974;2022-09-25T08:39:41;3.45;;;0.60;;
52106;SDS011;38105;52.968;5.974;2022-09-25T08:42:14;4.65;;;0.80;;
52106;SDS011;38105;52.968;5.974;2022-09-25T08:44:49;3.15;;;0.65;;
52106;SDS011;38105;52.968;5.974;2022-09-25T08:47:37;4.50;;;0.73;;
52106;SDS011;38105;52.968;5.974;2022-09-25T08:50:28;6.47;;;0.98;;
52106;SDS011;38105;52.968;5.974;2022-09-25T08:52:59;6.03;;;0.85;;
52106;SDS011;38105;52.968;5.974;2022-09-25T08:55:32;3.03;;;0.47;;
52106;SDS011;38105;52.968;5.974;2022-09-25T08:58:22;3.42;;;0.50;;
52106;SDS011;38105;52.968;5.974;2022-09-25T09:00:58;3.63;;;0.60;;
52106;SDS011;38105;52.968;5.974;2022-09-25T09:03:27;4.18;;;0.52;;
52106;SDS011;38105;52.968;5.974;2022-09-25T09:06:16;4.35;;;0.60;;
52106;SDS011;38105;52.968;5.974;2022-09-25T09:08:43;2.90;;;0.57;;
52106;SDS011;38105;52.968;5.974;2022-09-25T09:11:35;3.55;;;0.60;;
52106;SDS011;38105;52.968;5.974;2022-09-25T09:14:15;5.35;;;0.60;;
52106;SDS011;38105;52.968;5.974;2022-09-25T09:16:54;8.20;;;0.90;;
52106;SDS011;38105;52.968;5.974;2022-09-25T09:19:29;5.90;;;0.40;;
52106;SDS011;38105;52.968;5.974;2022-09-25T09:30:36;4.40;;;0.75;;
52106;SDS011;38105;52.968;5.974;2022-09-25T09:36:15;8.48;;;1.52;;
52106;SDS011;38105;52.968;5.974;2022-09-25T09:53:23;5.60;;;0.80;;
52106;SDS011;38105;52.968;5.974;2022-09-25T09:55:56;4.78;;;0.70;;
52106;SDS011;38105;52.968;5.974;2022-09-25T09:58:43;3.67;;;0.60;;
52106;SDS011;38105;52.968;5.974;2022-09-25T10:01:16;3.67;;;0.60;;
52106;SDS011;38105;52.968;5.974;2022-09-25T10:03:56;4.93;;;0.52;;
52106;SDS011;38105;52.968;5.974;2022-09-25T10:06:28;4.90;;;0.80;;
52106;SDS011;38105;52.968;5.974;2022-09-25T10:09:01;3.97;;;0.55;;
52106;SDS011;38105;52.968;5.974;2022-09-25T10:11:31;3.88;;;0.57;;
52106;SDS011;38105;52.968;5.974;2022-09-25T10:13:58;3.10;;;0.43;;
52106;SDS011;38105;52.968;5.974;2022-09-25T10:16:27;3.65;;;0.50;;
52106;SDS011;38105;52.968;5.974;2022-09-25T10:19:09;3.22;;;0.52;;
52106;SDS011;38105;52.968;5.974;2022-09-25T10:21:57;4.25;;;0.60;;
52106;SDS011;38105;52.968;5.974;2022-09-25T10:27:25;4.60;;;0.60;;
52106;SDS011;38105;52.968;5.974;2022-09-25T10:32:31;4.50;;;0.60;;
52106;SDS011;38105;52.968;5.974;2022-09-25T10:34:59;3.63;;;0.40;;
52106;SDS011;38105;52.968;5.974;2022-09-25T10:37:29;4.03;;;0.63;;
52106;SDS011;38105;52.968;5.974;2022-09-25T10:40:05;4.70;;;0.70;;
52106;SDS011;38105;52.968;5.974;2022-09-25T10:42:49;3.40;;;0.90;;
52106;SDS011;38105;52.968;5.974;2022-09-25T10:45:34;3.00;;;0.55;;
52106;SDS011;38105;52.968;5.974;2022-09-25T10:48:01;4.05;;;0.63;;
52106;SDS011;38105;52.968;5.974;2022-09-25T10:51:06;2.55;;;0.40;;
52106;SDS011;38105;52.968;5.974;2022-09-25T10:53:33;3.25;;;0.80;;
52106;SDS011;38105;52.968;5.974;2022-09-25T10:56:07;2.55;;;0.60;;
52106;SDS011;38105;52.968;5.974;2022-09-25T11:01:35;3.20;;;0.60;;
52106;SDS011;38105;52.968;5.974;2022-09-25T11:04:04;4.03;;;0.32;;
52106;SDS011;38105;52.968;5.974;2022-09-25T11:06:49;2.75;;;0.45;;
52106;SDS011;38105;52.968;5.974;2022-09-25T11:09:25;3.00;;;0.38;;
52106;SDS011;38105;52.968;5.974;2022-09-25T11:11:53;4.45;;;0.65;;
52106;SDS011;38105;52.968;5.974;2022-09-25T11:14:46;2.03;;;0.30;;
52106;SDS011;38105;52.968;5.974;2022-09-25T11:17:31;4.05;;;0.40;;
52106;SDS011;38105;52.968;5.974;2022-09-25T11:20:18;6.78;;;0.73;;
52106;SDS011;38105;52.968;5.974;2022-09-25T11:22:59;2.85;;;0.47;;
52106;SDS011;38105;52.968;5.974;2022-09-25T11:25:48;3.95;;;0.35;;
52106;SDS011;38105;52.968;5.974;2022-09-25T11:28:45;2.75;;;0.30;;
52106;SDS011;38105;52.968;5.974;2022-09-25T11:34:10;3.55;;;0.60;;
52106;SDS011;38105;52.968;5.974;2022-09-25T11:36:44;2.20;;;0.47;;
52106;SDS011;38105;52.968;5.974;2022-09-25T11:39:16;2.85;;;0.30;;
52106;SDS011;38105;52.968;5.974;2022-09-25T11:42:13;2.55;;;0.40;;
52106;SDS011;38105;52.968;5.974;2022-09-25T11:44:53;2.75;;;0.60;;
52106;SDS011;38105;52.968;5.974;2022-09-25T11:47:37;3.30;;;0.30;;
52106;SDS011;38105;52.968;5.974;2022-09-25T11:50:13;3.60;;;0.60;;
52106;SDS011;38105;52.968;5.974;2022-09-25T12:03:59;5.05;;;2.30;;
52106;SDS011;38105;52.968;5.974;2022-09-25T12:12:44;4.47;;;0.50;;
52106;SDS011;38105;52.968;5.974;2022-09-25T12:17:58;3.40;;;0.52;;
52106;SDS011;38105;52.968;5.974;2022-09-25T12:20:59;7.80;;;0.70;;
52106;SDS011;38105;52.968;5.974;2022-09-25T12:24:05;2.20;;;0.35;;
52106;SDS011;38105;52.968;5.974;2022-09-25T12:26:42;2.88;;;0.50;;
52106;SDS011;38105;52.968;5.974;2022-09-25T12:37:51;5.30;;;0.70;;
52106;SDS011;38105;52.968;5.974;2022-09-25T12:43:57;3.53;;;0.82;;
52106;SDS011;38105;52.968;5.974;2022-09-25T12:46:47;3.92;;;0.63;;
52106;SDS011;38105;52.968;5.974;2022-09-25T12:51:56;4.72;;;1.10;;
52106;SDS011;38105;52.968;5.974;2022-09-25T12:54:30;3.75;;;0.47;;
52106;SDS011;38105;52.968;5.974;2022-09-25T12:57:14;2.63;;;0.52;;
52106;SDS011;38105;52.968;5.974;2022-09-25T13:00:13;4.80;;;0.70;;
52106;SDS011;38105;52.968;5.974;2022-09-25T13:05:32;3.42;;;0.47;;
52106;SDS011;38105;52.968;5.974;2022-09-25T13:08:20;4.45;;;0.55;;
52106;SDS011;38105;52.968;5.974;2022-09-25T13:10:52;5.95;;;0.93;;
52106;SDS011;38105;52.968;5.974;2022-09-25T13:13:23;3.85;;;0.25;;
52106;SDS011;38105;52.968;5.974;2022-09-25T13:15:55;3.33;;;0.30;;
52106;SDS011;38105;52.968;5.974;2022-09-25T13:18:24;2.40;;;0.32;;
52106;SDS011;38105;52.968;5.974;2022-09-25T13:20:52;6.38;;;0.68;;
52106;SDS011;38105;52.968;5.974;2022-09-25T13:23:26;5.25;;;0.38;;
52106;SDS011;38105;52.968;5.974;2022-09-25T13:25:59;5.32;;;0.43;;
52106;SDS011;38105;52.968;5.974;2022-09-25T13:28:38;4.93;;;0.52;;
52106;SDS011;38105;52.968;5.974;2022-09-25T13:31:19;6.65;;;0.40;;
52106;SDS011;38105;52.968;5.974;2022-09-25T13:33:55;4.85;;;0.50;;
52106;SDS011;38105;52.968;5.974;2022-09-25T13:38:57;2.75;;;0.40;;
52106;SDS011;38105;52.968;5.974;2022-09-25T13:49:54;4.68;;;0.50;;
52106;SDS011;38105;52.968;5.974;2022-09-25T13:55:34;5.47;;;0.73;;
52106;SDS011;38105;52.968;5.974;2022-09-25T14:03:03;4.53;;;0.50;;
52106;SDS011;38105;52.968;5.974;2022-09-25T14:05:31;4.07;;;0.40;;
52106;SDS011;38105;52.968;5.974;2022-09-25T14:08:06;2.05;;;0.30;;
52106;SDS011;38105;52.968;5.974;2022-09-25T14:10:33;4.78;;;0.50;;
52106;SDS011;38105;52.968;5.974;2022-09-25T14:12:59;3.03;;;0.50;;
52106;SDS011;38105;52.968;5.974;2022-09-25T14:15:32;2.95;;;0.50;;
52106;SDS011;38105;52.968;5.974;2022-09-25T14:18:03;3.80;;;0.35;;
52106;SDS011;38105;52.968;5.974;2022-09-25T14:20:50;3.30;;;0.40;;
52106;SDS011;38105;52.968;5.974;2022-09-25T14:23:24;2.85;;;0.55;;
52106;SDS011;38105;52.968;5.974;2022-09-25T14:25:57;2.85;;;0.47;;
52106;SDS011;38105;52.968;5.974;2022-09-25T14:28:27;4.65;;;0.55;;
52106;SDS011;38105;52.968;5.974;2022-09-25T14:36:50;7.13;;;0.50;;
52106;SDS011;38105;52.968;5.974;2022-09-25T14:48:18;2.33;;;0.47;;
52106;SDS011;38105;52.968;5.974;2022-09-25T14:50:50;4.00;;;0.75;;
52106;SDS011;38105;52.968;5.974;2022-09-25T14:53:30;2.55;;;0.60;;
52106;SDS011;38105;52.968;5.974;2022-09-25T14:56:00;3.80;;;0.80;;
52106;SDS011;38105;52.968;5.974;2022-09-25T14:58:35;4.07;;;0.77;;
52106;SDS011;38105;52.968;5.974;2022-09-25T15:03:43;2.35;;;0.82;;
52106;SDS011;38105;52.968;5.974;2022-09-25T15:06:12;3.00;;;0.50;;
52106;SDS011;38105;52.968;5.974;2022-09-25T15:08:56;5.55;;;0.50;;
52106;SDS011;38105;52.968;5.974;2022-09-25T15:11:25;3.53;;;0.57;;
52106;SDS011;38105;52.968;5.974;2022-09-25T15:13:53;2.60;;;0.50;;
52106;SDS011;38105;52.968;5.974;2022-09-25T15:16:21;3.70;;;0.73;;
52106;SDS011;38105;52.968;5.974;2022-09-25T15:19:14;4.68;;;0.43;;
52106;SDS011;38105;52.968;5.974;2022-09-25T15:21:46;3.97;;;0.40;;
52106;SDS011;38105;52.968;5.974;2022-09-25T15:24:19;2.83;;;0.30;;
52106;SDS011;38105;52.968;5.974;2022-09-25T15:26:58;4.50;;;0.40;;
52106;SDS011;38105;52.968;5.974;2022-09-25T15:29:32;5.70;;;0.68;;
52106;SDS011;38105;52.968;5.974;2022-09-25T15:32:06;1.95;;;0.30;;
52106;SDS011;38105;52.968;5.974;2022-09-25T15:34:42;3.33;;;0.50;;
52106;SDS011;38105;52.968;5.974;2022-09-25T15:37:15;7.95;;;0.63;;
52106;SDS011;38105;52.968;5.974;2022-09-25T15:39:50;4.00;;;0.60;;
52106;SDS011;38105;52.968;5.974;2022-09-25T15:42:16;3.88;;;0.35;;
52106;SDS011;38105;52.968;5.974;2022-09-25T15:44:42;2.03;;;0.45;;
52106;SDS011;38105;52.968;5.974;2022-09-25T15:50:30;1.33;;;0.22;;
52106;SDS011;38105;52.968;5.974;2022-09-25T15:52:56;3.28;;;0.50;;
52106;SDS011;38105;52.968;5.974;2022-09-25T15:55:24;3.40;;;0.70;;
52106;SDS011;38105;52.968;5.974;2022-09-25T15:57:54;5.03;;;0.52;;
52106;SDS011;38105;52.968;5.974;2022-09-25T16:00:30;4.57;;;0.52;;
52106;SDS011;38105;52.968;5.974;2022-09-25T16:03:23;4.00;;;0.50;;
52106;SDS011;38105;52.968;5.974;2022-09-25T16:06:15;3.88;;;0.60;;
52106;SDS011;38105;52.968;5.974;2022-09-25T16:08:44;1.90;;;0.33;;
52106;SDS011;38105;52.968;5.974;2022-09-25T16:13:52;5.00;;;0.40;;
52106;SDS011;38105;52.968;5.974;2022-09-25T16:16:47;4.28;;;0.52;;
52106;SDS011;38105;52.968;5.974;2022-09-25T16:19:19;5.60;;;0.40;;
52106;SDS011;38105;52.968;5.974;2022-09-25T16:21:51;4.63;;;0.80;;
52106;SDS011;38105;52.968;5.974;2022-09-25T16:24:18;5.65;;;1.48;;
52106;SDS011;38105;52.968;5.974;2022-09-25T16:26:51;4.20;;;0.70;;
52106;SDS011;38105;52.968;5.974;2022-09-25T16:29:26;2.90;;;0.50;;
52106;SDS011;38105;52.968;5.974;2022-09-25T16:31:58;4.75;;;0.60;;
52106;SDS011;38105;52.968;5.974;2022-09-25T16:34:29;3.50;;;0.50;;
52106;SDS011;38105;52.968;5.974;2022-09-25T16:36:59;3.08;;;0.40;;
52106;SDS011;38105;52.968;5.974;2022-09-25T16:39:33;1.65;;;0.40;;
52106;SDS011;38105;52.968;5.974;2022-09-25T16:42:36;4.75;;;0.70;;
52106;SDS011;38105;52.968;5.974;2022-09-25T16:45:07;5.53;;;0.82;;
52106;SDS011;38105;52.968;5.974;2022-09-25T16:47:44;5.45;;;0.80;;
52106;SDS011;38105;52.968;5.974;2022-09-25T16:50:11;4.95;;;0.82;;
52106;SDS011;38105;52.968;5.974;2022-09-25T16:52:38;6.90;;;0.90;;
52106;SDS011;38105;52.968;5.974;2022-09-25T16:55:10;3.63;;;0.90;;
52106;SDS011;38105;52.968;5.974;2022-09-25T16:58:04;7.22;;;0.82;;
52106;SDS011;38105;52.968;5.974;2022-09-25T17:00:33;5.80;;;0.70;;
52106;SDS011;38105;52.968;5.974;2022-09-25T17:03:02;5.22;;;0.70;;
52106;SDS011;38105;52.968;5.974;2022-09-25T17:05:28;7.63;;;1.08;;
52106;SDS011;38105;52.968;5.974;2022-09-25T17:07:58;3.05;;;0.55;;
52106;SDS011;38105;52.968;5.974;2022-09-25T17:10:28;5.90;;;0.73;;
52106;SDS011;38105;52.968;5.974;2022-09-25T17:12:56;4.57;;;1.02;;
52106;SDS011;38105;52.968;5.974;2022-09-25T17:15:27;4.30;;;0.70;;
52106;SDS011;38105;52.968;5.974;2022-09-25T17:17:57;3.92;;;0.85;;
52106;SDS011;38105;52.968;5.974;2022-09-25T17:20:25;4.10;;;0.80;;
52106;SDS011;38105;52.968;5.974;2022-09-25T17:22:51;5.38;;;0.75;;
52106;SDS011;38105;52.968;5.974;2022-09-25T17:25:23;4.60;;;0.77;;
52106;SDS011;38105;52.968;5.974;2022-09-25T17:27:55;6.15;;;0.60;;
52106;SDS011;38105;52.968;5.974;2022-09-25T17:30:21;3.80;;;0.80;;
52106;SDS011;38105;52.968;5.974;2022-09-25T17:32:47;6.18;;;0.68;;
52106;SDS011;38105;52.968;5.974;2022-09-25T17:35:24;4.93;;;0.50;;
52106;SDS011;38105;52.968;5.974;2022-09-25T17:37:51;2.83;;;0.50;;
52106;SDS011;38105;52.968;5.974;2022-09-25T17:40:17;5.25;;;0.60;;
52106;SDS011;38105;52.968;5.974;2022-09-25T17:42:43;2.05;;;0.82;;
52106;SDS011;38105;52.968;5.974;2022-09-25T17:45:17;4.20;;;1.08;;
52106;SDS011;38105;52.968;5.974;2022-09-25T17:47:54;3.40;;;0.77;;
52106;SDS011;38105;52.968;5.974;2022-09-25T17:50:23;6.72;;;0.90;;
52106;SDS011;38105;52.968;5.974;2022-09-25T17:52:57;4.28;;;0.80;;
52106;SDS011;38105;52.968;5.974;2022-09-25T17:55:23;4.72;;;0.85;;
52106;SDS011;38105;52.968;5.974;2022-09-25T17:57:51;3.00;;;0.73;;
52106;SDS011;38105;52.968;5.974;2022-09-25T18:00:17;8.18;;;1.13;;